createdAt,value
2023-05-01T00:02:12.246Z,16.30
2023-05-01T00:04:47.228Z,16.10
2023-05-01T00:07:19.391Z,15.90
2023-05-01T00:09:51.695Z,15.70
2023-05-01T00:12:24.119Z,15.40
2023-05-01T00:14:56.240Z,15.20
2023-05-01T00:17:28.447Z,15.10
2023-05-01T00:20:05.303Z,15.00
2023-05-01T00:22:37.509Z,15.00
2023-05-01T00:25:10.805Z,15.10
2023-05-01T00:27:43.313Z,15.30
2023-05-01T00:30:15.651Z,15.50
2023-05-01T00:32:47.721Z,15.70
2023-05-01T00:35:22.785Z,15.80
2023-05-01T00:37:54.828Z,16.00
2023-05-01T00:40:26.934Z,16.20
2023-05-01T00:42:59.021Z,16.30
2023-05-01T00:45:31.283Z,16.40
2023-05-01T00:48:03.675Z,16.50
2023-05-01T00:50:38.915Z,16.60
2023-05-01T00:53:11.653Z,16.70
2023-05-01T00:55:44.236Z,16.80
2023-05-01T00:58:17.867Z,16.90
2023-05-01T01:00:50.399Z,17.00
2023-05-01T01:03:22.589Z,17.00
2023-05-01T01:06:01.023Z,17.10
2023-05-01T01:08:40.127Z,17.10
2023-05-01T01:11:21.854Z,17.10
2023-05-01T01:14:00.216Z,17.20
2023-05-01T01:16:39.781Z,17.30
2023-05-01T01:19:35.102Z,17.20
2023-05-01T01:22:13.668Z,17.20
2023-05-01T01:24:57.575Z,16.90
2023-05-01T01:27:58.382Z,16.60
2023-05-01T01:30:42.338Z,16.20
2023-05-01T01:33:49.411Z,15.90
2023-05-01T01:36:29.376Z,15.60
2023-05-01T01:39:09.736Z,15.40
2023-05-01T01:41:46.972Z,15.10
2023-05-01T01:44:24.647Z,14.90
2023-05-01T01:46:56.752Z,14.70
2023-05-01T01:49:32.693Z,14.50
2023-05-01T01:52:06.666Z,14.40
2023-05-01T01:54:43.493Z,14.30
2023-05-01T01:57:18.001Z,14.10
2023-05-01T01:59:51.413Z,14.00
2023-05-01T02:02:24.919Z,13.90
2023-05-01T02:05:00.417Z,13.80
2023-05-01T02:07:33.213Z,13.70
2023-05-01T02:10:07.042Z,13.60
2023-05-01T02:12:40.255Z,13.50
2023-05-01T02:15:13.113Z,13.40
2023-05-01T02:17:45.518Z,13.30
2023-05-01T02:20:21.733Z,13.30
2023-05-01T02:22:54.435Z,13.20
2023-05-01T02:25:30.734Z,13.20
2023-05-01T02:28:12.376Z,13.10
2023-05-01T02:30:45.232Z,13.10
2023-05-01T02:33:17.515Z,13.00
2023-05-01T02:35:52.145Z,13.00
2023-05-01T02:38:24.327Z,12.90
2023-05-01T02:40:58.535Z,12.90
2023-05-01T02:43:33.161Z,12.90
2023-05-01T02:46:07.808Z,12.80
2023-05-01T02:48:42.279Z,12.80
2023-05-01T02:51:18.513Z,12.70
2023-05-01T02:53:50.598Z,12.70
2023-05-01T02:56:23.109Z,12.70
2023-05-01T02:58:55.463Z,12.70
2023-05-01T03:01:28.721Z,12.70
2023-05-01T03:04:01.206Z,12.60
2023-05-01T03:06:35.972Z,12.60
2023-05-01T03:09:08.301Z,12.60
2023-05-01T03:11:40.409Z,12.50
2023-05-01T03:14:12.591Z,12.50
2023-05-01T03:16:44.730Z,12.50
2023-05-01T03:19:16.835Z,12.40
2023-05-01T03:21:51.473Z,12.40
2023-05-01T03:24:24.426Z,12.40
2023-05-01T03:26:56.838Z,12.30
2023-05-01T03:29:29.467Z,12.30
2023-05-01T03:32:02.080Z,12.30
2023-05-01T03:34:34.423Z,12.30
2023-05-01T03:37:09.033Z,12.20
2023-05-01T03:39:41.149Z,12.20
2023-05-01T03:42:13.186Z,12.20
2023-05-01T03:44:45.414Z,12.20
2023-05-01T03:47:17.523Z,12.30
2023-05-01T03:49:49.584Z,12.30
2023-05-01T03:52:24.214Z,12.40
2023-05-01T03:54:57.303Z,12.30
2023-05-01T03:57:29.370Z,12.20
2023-05-01T04:00:01.543Z,12.20
2023-05-01T04:02:33.819Z,12.20
2023-05-01T04:05:06.869Z,12.20
2023-05-01T04:07:41.753Z,12.20
2023-05-01T04:10:13.801Z,12.20
2023-05-01T04:12:45.836Z,12.20
2023-05-01T04:15:17.951Z,12.20
2023-05-01T04:17:50.316Z,12.20
2023-05-01T04:20:22.522Z,12.20
2023-05-01T04:22:57.140Z,12.20
2023-05-01T04:25:29.532Z,12.20
2023-05-01T04:28:01.653Z,12.20
2023-05-01T04:30:34.047Z,12.20
2023-05-01T04:33:12.258Z,12.20
2023-05-01T04:35:44.331Z,12.30
2023-05-01T04:38:19.247Z,12.20
2023-05-01T04:40:52.543Z,12.30
2023-05-01T04:43:24.624Z,12.30
2023-05-01T04:45:56.741Z,12.20
2023-05-01T04:48:28.767Z,12.30
2023-05-01T04:51:00.881Z,12.30
2023-05-01T04:53:36.197Z,12.30
2023-05-01T04:56:08.284Z,12.30
2023-05-01T04:58:40.416Z,12.30
2023-05-01T05:01:12.480Z,12.30
2023-05-01T05:03:46.605Z,12.40
2023-05-01T05:06:20.365Z,12.40
2023-05-01T05:08:55.972Z,12.40
2023-05-01T05:11:28.006Z,12.40
2023-05-01T05:14:00.058Z,12.40
2023-05-01T05:16:32.378Z,12.40
2023-05-01T05:19:04.504Z,12.40
2023-05-01T05:21:37.448Z,12.40
2023-05-01T05:24:12.082Z,12.40
2023-05-01T05:26:44.142Z,12.40
2023-05-01T05:29:16.155Z,12.50
2023-05-01T05:31:48.297Z,12.50
2023-05-01T05:34:20.360Z,12.50
2023-05-01T05:36:52.498Z,12.50
2023-05-01T05:39:27.166Z,12.50
2023-05-01T05:41:59.179Z,12.60
2023-05-01T05:44:33.155Z,12.60
2023-05-01T05:47:05.248Z,12.60
2023-05-01T05:49:37.382Z,12.60
2023-05-01T05:52:09.539Z,12.60
2023-05-01T05:54:44.330Z,12.60
2023-05-01T05:57:16.406Z,12.60
2023-05-01T05:59:48.717Z,12.60
2023-05-01T06:02:20.844Z,12.60
2023-05-01T06:04:52.963Z,12.60
2023-05-01T06:07:25.838Z,12.60
2023-05-01T06:10:04.404Z,12.70
2023-05-01T06:12:38.317Z,12.70
2023-05-01T06:15:17.032Z,12.70
2023-05-01T06:17:49.276Z,12.70
2023-05-01T06:20:21.330Z,12.80
2023-05-01T06:22:53.363Z,12.80
2023-05-01T06:25:28.099Z,12.90
2023-05-01T06:28:00.188Z,12.90
2023-05-01T06:30:32.354Z,12.90
2023-05-01T06:33:04.629Z,12.90
2023-05-01T06:35:38.666Z,13.00
2023-05-01T06:38:10.770Z,13.00
2023-05-01T06:40:47.183Z,13.10
2023-05-01T06:43:20.031Z,13.10
2023-05-01T06:45:52.133Z,13.10
2023-05-01T06:48:24.551Z,13.20
2023-05-01T06:50:56.711Z,13.20
2023-05-01T06:53:28.784Z,13.20
2023-05-01T06:56:03.714Z,13.20
2023-05-01T06:58:36.585Z,13.30
2023-05-01T07:01:08.746Z,13.30
2023-05-01T07:03:40.892Z,13.30
2023-05-01T07:06:13.078Z,13.40
2023-05-01T07:08:45.257Z,13.40
2023-05-01T07:11:20.534Z,13.40
2023-05-01T07:13:52.723Z,13.50
2023-05-01T07:16:25.059Z,13.50
2023-05-01T07:18:57.450Z,13.50
2023-05-01T07:21:29.562Z,13.60
2023-05-01T07:24:01.616Z,13.60
2023-05-01T07:26:36.408Z,13.60
2023-05-01T07:29:08.654Z,13.60
2023-05-01T07:31:42.154Z,13.70
2023-05-01T07:34:14.350Z,13.70
2023-05-01T07:36:46.534Z,13.70
2023-05-01T07:39:18.629Z,13.70
2023-05-01T07:41:53.274Z,13.80
2023-05-01T07:44:25.360Z,13.80
2023-05-01T07:47:03.304Z,13.90
2023-05-01T07:49:39.050Z,13.90
2023-05-01T07:52:11.195Z,13.90
2023-05-01T07:54:43.261Z,14.00
2023-05-01T07:57:18.007Z,14.00
2023-05-01T07:59:55.072Z,14.00
2023-05-01T08:02:27.563Z,14.10
2023-05-01T08:04:59.810Z,14.10
2023-05-01T08:07:32.084Z,14.20
2023-05-01T08:10:04.928Z,14.20
2023-05-01T08:12:39.791Z,14.20
2023-05-01T08:15:11.913Z,14.30
2023-05-01T08:17:44.122Z,14.30
2023-05-01T08:20:16.281Z,14.40
2023-05-01T08:22:48.478Z,14.40
2023-05-01T08:25:20.886Z,14.50
2023-05-01T08:27:55.623Z,14.50
2023-05-01T08:30:28.021Z,14.60
2023-05-01T08:33:00.134Z,14.60
2023-05-01T08:35:32.261Z,14.70
2023-05-01T08:38:04.347Z,14.70
2023-05-01T08:40:38.602Z,14.80
2023-05-01T08:43:13.745Z,14.80
2023-05-01T08:45:47.712Z,14.90
2023-05-01T08:48:21.125Z,15.00
2023-05-01T08:50:56.619Z,15.00
2023-05-01T08:53:31.918Z,15.10
2023-05-01T08:56:07.928Z,15.20
2023-05-01T08:58:45.528Z,15.30
2023-05-01T09:01:17.685Z,15.40
2023-05-01T09:03:51.114Z,15.40
2023-05-01T09:06:23.809Z,15.50
2023-05-01T09:08:56.175Z,15.50
2023-05-01T09:11:28.830Z,15.60
2023-05-01T09:14:08.686Z,15.70
2023-05-01T09:16:43.654Z,15.70
2023-05-01T09:19:15.940Z,15.80
2023-05-01T09:21:50.636Z,15.90
2023-05-01T09:24:37.843Z,16.00
2023-05-01T09:27:13.304Z,16.00
2023-05-01T09:29:48.646Z,16.20
2023-05-01T09:32:22.024Z,16.20
2023-05-01T09:34:55.308Z,16.30
2023-05-01T09:37:29.283Z,16.30
2023-05-01T09:40:06.327Z,16.40
2023-05-01T09:42:40.567Z,16.50
2023-05-01T09:45:15.792Z,16.50
2023-05-01T09:47:48.454Z,16.60
2023-05-01T09:50:30.886Z,16.60
2023-05-01T09:53:05.261Z,16.70
2023-05-01T09:55:37.673Z,16.80
2023-05-01T09:58:27.434Z,16.80
2023-05-01T10:01:02.163Z,16.80
2023-05-01T10:03:34.887Z,16.80
2023-05-01T10:06:09.270Z,16.80
2023-05-01T10:08:46.609Z,16.80
2023-05-01T10:11:18.689Z,16.80
2023-05-01T10:14:07.123Z,16.70
2023-05-01T10:16:42.106Z,16.70
2023-05-01T10:19:17.012Z,16.70
2023-05-01T10:21:49.121Z,16.70
2023-05-01T10:24:21.459Z,16.70
2023-05-01T10:26:54.731Z,16.70
2023-05-01T10:29:29.925Z,16.70
2023-05-01T10:32:07.572Z,16.70
2023-05-01T10:34:46.052Z,16.70
2023-05-01T10:37:26.720Z,16.70
2023-05-01T10:39:58.872Z,16.70
2023-05-01T10:42:31.349Z,16.70
2023-05-01T10:45:31.120Z,16.70
2023-05-01T10:48:06.027Z,16.80
2023-05-01T10:51:09.687Z,16.80
2023-05-01T10:53:43.034Z,16.90
2023-05-01T10:56:43.490Z,16.90
2023-05-01T10:59:15.707Z,17.00
2023-05-01T11:01:53.244Z,17.00
2023-05-01T11:07:42.967Z,17.10
2023-05-01T11:10:32.781Z,17.30
2023-05-01T11:13:04.878Z,17.40
2023-05-01T11:15:37.162Z,17.40
2023-05-01T11:18:11.183Z,17.50
2023-05-01T11:28:53.436Z,17.70
2023-05-01T11:37:01.883Z,18.10
2023-05-01T11:39:36.794Z,18.20
2023-05-01T11:42:09.622Z,18.40
2023-05-01T11:44:41.851Z,18.50
2023-05-01T11:47:31.008Z,18.60
2023-05-01T11:50:03.741Z,18.70
2023-05-01T11:53:21.137Z,19.00
2023-05-01T11:59:49.096Z,19.50
2023-05-01T12:02:23.331Z,19.90
2023-05-01T12:15:57.314Z,20.40
2023-05-01T12:18:30.980Z,20.50
2023-05-01T12:24:00.205Z,21.00
2023-05-01T12:33:54.071Z,21.30
2023-05-01T12:36:56.491Z,21.30
2023-05-01T13:10:07.910Z,20.40
2023-05-01T13:19:36.327Z,20.20
2023-05-01T13:22:36.802Z,20.20
2023-05-01T13:25:33.536Z,20.10
2023-05-01T13:28:21.278Z,20.10
2023-05-01T13:36:55.773Z,20.10
2023-05-01T13:39:28.239Z,20.20
2023-05-01T13:42:04.173Z,20.20
2023-05-01T13:44:48.417Z,20.20
2023-05-01T13:48:37.510Z,20.20
2023-05-01T13:51:43.022Z,20.10
2023-05-01T13:55:15.976Z,20.10
2023-05-01T13:57:50.763Z,20.10
2023-05-01T14:00:23.310Z,20.00
2023-05-01T14:02:56.679Z,19.90
2023-05-01T14:06:58.384Z,19.90
2023-05-01T14:12:40.725Z,19.90
2023-05-01T14:15:24.032Z,19.90
2023-05-01T14:17:59.458Z,19.80
2023-05-01T14:20:31.669Z,19.70
2023-05-01T14:23:05.727Z,19.70
2023-05-01T14:25:38.442Z,19.60
2023-05-01T14:28:12.344Z,19.60
2023-05-01T14:30:48.954Z,19.60
2023-05-01T14:33:21.139Z,19.60
2023-05-01T14:35:54.095Z,19.60
2023-05-01T14:38:27.676Z,19.60
2023-05-01T14:40:59.767Z,19.60
2023-05-01T14:43:33.184Z,19.60
2023-05-01T14:46:08.044Z,19.60
2023-05-01T14:48:41.949Z,19.60
2023-05-01T14:51:19.785Z,19.60
2023-05-01T14:54:00.657Z,19.70
2023-05-01T14:56:36.866Z,19.70
2023-05-01T14:59:12.994Z,19.70
2023-05-01T15:01:48.813Z,19.80
2023-05-01T15:04:28.573Z,19.80
2023-05-01T15:07:18.418Z,19.80
2023-05-01T15:09:59.490Z,19.80
2023-05-01T15:12:33.055Z,19.90
2023-05-01T15:15:13.866Z,19.90
2023-05-01T15:17:48.608Z,20.00
2023-05-01T15:20:23.520Z,20.20
2023-05-01T15:23:00.465Z,20.30
2023-05-01T15:25:36.819Z,20.60
2023-05-01T15:28:16.409Z,20.70
2023-05-01T15:30:53.057Z,20.80
2023-05-01T15:33:29.259Z,20.80
2023-05-01T15:36:05.311Z,20.90
2023-05-01T15:38:40.507Z,21.10
2023-05-01T15:41:13.784Z,21.20
2023-05-01T15:43:46.706Z,21.30
2023-05-01T15:46:20.295Z,21.30
2023-05-01T15:48:55.106Z,21.30
2023-05-01T15:51:27.192Z,21.30
2023-05-01T15:54:00.568Z,21.30
2023-05-01T15:56:36.836Z,21.30
2023-05-01T15:59:09.007Z,21.40
2023-05-01T16:01:41.542Z,21.40
2023-05-01T16:04:16.415Z,21.40
2023-05-01T16:06:48.650Z,21.40
2023-05-01T16:09:22.661Z,21.30
2023-05-01T16:11:54.710Z,21.30
2023-05-01T16:14:27.112Z,21.20
2023-05-01T16:16:59.212Z,21.20
2023-05-01T16:19:34.108Z,21.10
2023-05-01T16:22:09.037Z,21.10
2023-05-01T16:24:41.437Z,21.10
2023-05-01T16:27:14.328Z,21.10
2023-05-01T16:29:46.455Z,21.20
2023-05-01T16:32:18.697Z,21.20
2023-05-01T16:34:53.523Z,21.10
2023-05-01T16:37:28.538Z,21.20
2023-05-01T16:40:01.252Z,21.20
2023-05-01T16:42:34.336Z,21.20
2023-05-01T16:45:08.827Z,21.10
2023-05-01T16:47:48.632Z,21.20
2023-05-01T16:50:25.938Z,21.20
2023-05-01T16:52:58.445Z,21.20
2023-05-01T16:55:30.570Z,21.20
2023-05-01T16:58:02.720Z,21.20
2023-05-01T17:00:34.825Z,21.10
2023-05-01T17:03:07.353Z,21.10
2023-05-01T17:05:42.202Z,20.90
2023-05-01T17:08:14.291Z,20.80
2023-05-01T17:10:46.563Z,20.60
2023-05-01T17:13:18.684Z,20.60
2023-05-01T17:15:52.736Z,20.50
2023-05-01T17:18:24.899Z,20.50
2023-05-01T17:20:59.737Z,20.40
2023-05-01T17:23:31.785Z,20.40
2023-05-01T17:26:04.131Z,20.30
2023-05-01T17:28:36.230Z,20.30
2023-05-01T17:57:29.906Z,20.20
2023-05-01T18:10:31.401Z,20.00
2023-05-01T18:13:07.709Z,19.80
2023-05-01T18:15:39.808Z,19.80
2023-05-01T18:18:12.805Z,19.70
2023-05-01T18:20:44.994Z,19.40
2023-05-01T18:23:18.917Z,19.30
2023-05-01T18:25:51.112Z,19.10
2023-05-01T18:28:25.886Z,18.80
2023-05-01T18:30:57.971Z,18.70
2023-05-01T18:33:30.123Z,18.50
2023-05-01T18:36:02.316Z,18.40
2023-05-01T18:38:34.382Z,18.30
2023-05-01T18:41:06.453Z,18.20
2023-05-01T18:43:41.116Z,18.10
2023-05-01T18:46:13.315Z,18.00
2023-05-01T18:48:45.542Z,17.90
2023-05-01T18:51:17.652Z,17.90
2023-05-01T18:53:49.764Z,17.80
2023-05-01T18:56:24.526Z,17.70
2023-05-01T18:59:03.289Z,17.60
2023-05-01T19:01:37.652Z,17.50
2023-05-01T19:04:11.684Z,17.40
2023-05-01T19:06:48.880Z,17.30
2023-05-01T19:09:22.428Z,17.20
2023-05-01T19:11:55.499Z,17.10
2023-05-01T19:14:30.633Z,16.90
2023-05-01T19:17:02.690Z,16.70
2023-05-01T19:19:34.760Z,16.60
2023-05-01T19:22:07.379Z,16.40
2023-05-01T19:24:40.185Z,16.30
2023-05-01T19:27:12.395Z,16.10
2023-05-01T19:29:47.292Z,16.00
2023-05-01T19:32:19.437Z,15.90
2023-05-01T19:34:51.632Z,15.90
2023-05-01T19:37:23.746Z,15.80
2023-05-01T19:39:56.337Z,15.80
2023-05-01T19:42:28.546Z,15.70
2023-05-01T19:45:05.388Z,15.70
2023-05-01T19:47:37.639Z,15.60
2023-05-01T19:50:10.820Z,15.60
2023-05-01T19:52:44.352Z,15.50
2023-05-01T19:55:17.174Z,15.50
2023-05-01T19:57:49.257Z,15.40
2023-05-01T20:00:36.649Z,15.40
2023-05-01T20:03:10.669Z,15.40
2023-05-01T20:05:43.204Z,15.30
2023-05-01T20:08:42.593Z,15.40
2023-05-01T20:11:20.482Z,15.40
2023-05-01T20:14:03.410Z,15.40
2023-05-01T20:16:49.312Z,15.40
2023-05-01T20:19:34.660Z,15.30
2023-05-01T20:22:16.640Z,15.30
2023-05-01T20:24:51.432Z,15.20
2023-05-01T20:27:26.909Z,15.20
2023-05-01T20:29:59.793Z,15.20
2023-05-01T20:33:00.282Z,15.20
2023-05-01T20:35:34.002Z,15.10
2023-05-01T20:38:06.325Z,15.10
2023-05-01T20:40:40.343Z,15.00
2023-05-01T20:43:13.068Z,15.00
2023-05-01T20:45:45.171Z,15.00
2023-05-01T20:48:19.802Z,14.90
2023-05-01T20:50:52.268Z,14.80
2023-05-01T20:53:24.360Z,14.80
2023-05-01T20:55:56.543Z,14.70
2023-05-01T20:58:28.588Z,14.60
2023-05-01T21:01:01.871Z,14.50
2023-05-01T21:03:36.618Z,14.40
2023-05-01T21:06:08.883Z,14.30
2023-05-01T21:08:41.153Z,14.30
2023-05-01T21:11:13.270Z,14.20
2023-05-01T21:13:45.341Z,14.20
2023-05-01T21:16:19.924Z,14.20
2023-05-01T21:18:54.697Z,14.20
2023-05-01T21:21:27.733Z,14.20
2023-05-01T21:23:59.824Z,14.10
2023-05-01T21:26:32.032Z,14.10
2023-05-01T21:29:04.166Z,14.10
2023-05-01T21:31:37.007Z,14.10
2023-05-01T21:34:11.722Z,14.20
2023-05-01T21:36:49.323Z,14.20
2023-05-01T21:39:24.589Z,14.20
2023-05-01T21:41:56.665Z,14.10
2023-05-01T21:44:30.896Z,14.20
2023-05-01T21:47:03.119Z,14.10
2023-05-01T21:49:39.947Z,14.20
2023-05-01T21:52:14.870Z,14.20
2023-05-01T21:54:46.953Z,14.20
2023-05-01T21:57:19.030Z,14.20
2023-05-01T21:59:51.181Z,14.20
2023-05-01T22:02:23.242Z,14.20
2023-05-01T22:04:58.196Z,14.20
2023-05-01T22:07:30.252Z,14.20
2023-05-01T22:10:02.562Z,14.20
2023-05-01T22:12:34.756Z,14.10
2023-05-01T22:15:08.708Z,14.10
2023-05-01T22:17:41.236Z,14.10
2023-05-01T22:20:16.333Z,14.10
2023-05-01T22:22:48.463Z,14.10
2023-05-01T22:25:20.902Z,14.10
2023-05-01T22:27:53.069Z,14.10
2023-05-01T22:30:25.168Z,14.10
2023-05-01T22:32:57.262Z,14.10
2023-05-01T22:35:32.061Z,14.10
2023-05-01T22:38:04.112Z,14.10
2023-05-01T22:40:36.177Z,14.10
2023-05-01T22:43:08.267Z,14.00
2023-05-01T22:45:40.304Z,14.00
2023-05-01T22:48:12.542Z,14.00
2023-05-01T22:50:47.280Z,14.00
2023-05-01T22:53:19.477Z,14.10
2023-05-01T22:55:51.602Z,14.10
2023-05-01T22:58:23.758Z,14.10
2023-05-01T23:00:55.949Z,14.10
2023-05-01T23:03:28.113Z,14.10
2023-05-01T23:06:02.989Z,14.10
2023-05-01T23:08:35.268Z,14.00
2023-05-01T23:11:10.127Z,14.00
2023-05-01T23:13:46.878Z,14.00
2023-05-01T23:16:19.305Z,14.00
2023-05-01T23:18:51.743Z,14.00
2023-05-01T23:21:26.400Z,13.90
2023-05-01T23:23:58.459Z,13.90
2023-05-01T23:26:30.600Z,13.90
2023-05-01T23:29:06.267Z,13.80
2023-05-01T23:31:44.699Z,13.80
2023-05-01T23:34:17.753Z,13.80
2023-05-01T23:36:52.471Z,13.80
2023-05-01T23:39:24.542Z,13.80
2023-05-01T23:41:56.613Z,13.70
2023-05-01T23:44:28.841Z,13.70
2023-05-01T23:47:00.988Z,13.70
2023-05-01T23:49:33.160Z,13.70
2023-05-01T23:52:10.754Z,13.60
2023-05-01T23:54:42.891Z,13.60
2023-05-01T23:57:15.021Z,13.60
2023-05-01T23:59:47.111Z,13.50
